createdAt,value
2023-04-15T00:02:26.351Z,9.92
2023-04-15T00:05:12.538Z,10.18
2023-04-15T00:07:58.521Z,10.22
2023-04-15T00:10:44.421Z,10.29
2023-04-15T00:13:30.321Z,10.21
2023-04-15T00:16:16.346Z,10.06
2023-04-15T00:19:02.566Z,10.30
2023-04-15T00:21:48.729Z,10.14
2023-04-15T00:24:34.744Z,10.26
2023-04-15T00:27:20.649Z,10.22
2023-04-15T00:30:06.707Z,10.22
2023-04-15T00:32:52.847Z,10.45
2023-04-15T00:35:38.806Z,10.35
2023-04-15T00:38:24.800Z,9.90
2023-04-15T00:41:10.772Z,9.06
2023-04-15T00:43:56.609Z,8.85
2023-04-15T00:46:42.662Z,8.36
2023-04-15T00:49:28.418Z,8.31
2023-04-15T00:52:14.312Z,8.38
2023-04-15T00:55:00.316Z,8.00
2023-04-15T00:57:46.126Z,7.93
2023-04-15T01:00:32.043Z,8.23
2023-04-15T01:03:18.265Z,8.02
2023-04-15T01:06:04.485Z,8.01
2023-04-15T01:08:50.535Z,8.24
2023-04-15T01:11:36.418Z,8.45
2023-04-15T01:14:22.439Z,8.74
2023-04-15T01:17:08.260Z,8.53
2023-04-15T01:19:54.101Z,8.80
2023-04-15T01:22:40.047Z,8.88
2023-04-15T01:25:25.901Z,8.55
2023-04-15T01:28:12.264Z,8.81
2023-04-15T01:30:58.188Z,8.73
2023-04-15T01:33:44.085Z,9.10
2023-04-15T01:36:30.007Z,9.05
2023-04-15T01:39:15.982Z,8.88
2023-04-15T01:42:01.832Z,8.86
2023-04-15T01:44:49.826Z,9.06
2023-04-15T01:47:35.668Z,9.17
2023-04-15T01:50:21.584Z,9.02
2023-04-15T01:53:07.507Z,8.93
2023-04-15T01:55:53.439Z,9.08
2023-04-15T01:58:40.486Z,9.07
2023-04-15T02:01:26.768Z,8.92
2023-04-15T02:04:12.922Z,9.23
2023-04-15T02:06:58.885Z,9.11
2023-04-15T02:09:44.820Z,9.17
2023-04-15T02:12:30.813Z,9.05
2023-04-15T02:15:16.697Z,8.94
2023-04-15T02:18:02.778Z,8.66
2023-04-15T02:20:48.784Z,8.77
2023-04-15T02:23:34.677Z,9.02
2023-04-15T02:26:20.544Z,8.87
2023-04-15T02:29:07.866Z,9.16
2023-04-15T02:31:53.816Z,8.85
2023-04-15T02:34:39.624Z,8.84
2023-04-15T02:37:25.617Z,8.71
2023-04-15T02:40:11.497Z,8.99
2023-04-15T02:42:57.220Z,8.71
2023-04-15T02:45:43.088Z,8.66
2023-04-15T02:48:28.900Z,8.59
2023-04-15T02:51:14.788Z,8.58
2023-04-15T02:54:00.677Z,8.55
2023-04-15T02:56:46.306Z,8.70
2023-04-15T02:59:32.195Z,9.18
2023-04-15T03:02:18.173Z,9.36
2023-04-15T03:05:04.394Z,9.49
2023-04-15T03:07:50.383Z,9.48
2023-04-15T03:10:36.311Z,9.47
2023-04-15T03:13:22.520Z,9.30
2023-04-15T03:16:08.587Z,9.62
2023-04-15T03:18:54.524Z,9.78
2023-04-15T03:21:40.464Z,9.86
2023-04-15T03:24:26.291Z,9.36
2023-04-15T03:27:12.097Z,9.85
2023-04-15T03:29:58.018Z,9.82
2023-04-15T03:32:43.922Z,9.82
2023-04-15T03:35:29.962Z,9.46
2023-04-15T03:38:15.896Z,9.25
2023-04-15T03:41:01.669Z,9.27
2023-04-15T03:43:47.665Z,9.42
2023-04-15T03:46:33.403Z,9.62
2023-04-15T03:49:19.250Z,9.66
2023-04-15T03:52:05.131Z,9.50
2023-04-15T03:54:50.933Z,9.17
2023-04-15T03:57:36.811Z,9.10
2023-04-15T04:00:22.763Z,9.12
2023-04-15T04:03:08.651Z,9.52
2023-04-15T04:05:55.262Z,9.63
2023-04-15T04:08:41.083Z,9.46
2023-04-15T04:11:27.114Z,8.92
2023-04-15T04:14:13.049Z,9.11
2023-04-15T04:16:58.848Z,9.35
2023-04-15T04:19:44.724Z,9.41
2023-04-15T04:22:30.585Z,8.96
2023-04-15T04:25:16.435Z,9.17
2023-04-15T04:28:02.397Z,9.07
2023-04-15T04:30:48.267Z,8.97
2023-04-15T04:33:34.083Z,9.19
2023-04-15T04:36:20.159Z,9.45
2023-04-15T04:39:06.008Z,8.94
2023-04-15T04:41:51.941Z,9.27
2023-04-15T04:44:37.830Z,9.45
2023-04-15T04:47:23.720Z,9.10
2023-04-15T04:50:09.599Z,8.69
2023-04-15T04:52:55.357Z,8.80
2023-04-15T04:55:41.356Z,8.66
2023-04-15T04:58:27.184Z,8.75
2023-04-15T05:01:13.077Z,8.60
2023-04-15T05:03:59.245Z,8.76
2023-04-15T05:06:45.443Z,8.53
2023-04-15T05:09:31.393Z,8.99
2023-04-15T05:12:17.274Z,9.09
2023-04-15T05:15:03.056Z,9.19
2023-04-15T05:17:49.018Z,9.26
2023-04-15T05:20:35.014Z,8.63
2023-04-15T05:23:20.876Z,9.11
2023-04-15T05:26:06.816Z,9.20
2023-04-15T05:28:52.642Z,9.02
2023-04-15T05:31:38.614Z,9.01
2023-04-15T05:34:24.538Z,9.35
2023-04-15T05:37:10.392Z,9.40
2023-04-15T05:39:56.357Z,9.04
2023-04-15T05:42:42.261Z,8.73
2023-04-15T05:45:28.133Z,8.85
2023-04-15T05:48:14.033Z,8.89
2023-04-15T05:50:59.796Z,8.88
2023-04-15T05:53:45.766Z,9.22
2023-04-15T05:56:31.720Z,9.30
2023-04-15T05:59:17.538Z,9.45
2023-04-15T06:02:03.495Z,9.86
2023-04-15T06:04:49.339Z,9.74
2023-04-15T06:07:35.339Z,9.89
2023-04-15T06:10:21.374Z,9.99
2023-04-15T06:13:07.270Z,9.66
2023-04-15T06:15:53.081Z,9.61
2023-04-15T06:18:39.110Z,9.84
2023-04-15T06:21:24.888Z,10.04
2023-04-15T06:24:12.678Z,10.23
2023-04-15T06:26:58.722Z,10.02
2023-04-15T06:29:44.565Z,10.03
2023-04-15T06:32:30.481Z,9.88
2023-04-15T06:35:16.233Z,9.43
2023-04-15T06:38:02.091Z,8.67
2023-04-15T06:40:47.989Z,7.88
2023-04-15T06:43:33.894Z,7.31
2023-04-15T06:46:20.021Z,7.11
2023-04-15T06:49:06.281Z,7.04
2023-04-15T06:51:52.233Z,6.87
2023-04-15T06:54:38.173Z,7.11
2023-04-15T06:57:23.843Z,7.02
2023-04-15T07:00:09.808Z,7.32
2023-04-15T07:02:55.825Z,7.40
2023-04-15T07:05:42.014Z,7.27
2023-04-15T07:08:27.913Z,7.67
2023-04-15T07:11:13.893Z,7.65
2023-04-15T07:13:59.790Z,7.95
2023-04-15T07:16:47.775Z,8.09
2023-04-15T07:19:33.635Z,7.95
2023-04-15T07:22:20.550Z,8.22
2023-04-15T07:25:07.009Z,8.24
2023-04-15T07:27:52.815Z,8.37
2023-04-15T07:30:38.683Z,8.39
2023-04-15T07:33:24.651Z,8.45
2023-04-15T07:36:10.575Z,8.04
2023-04-15T07:38:56.367Z,7.97
2023-04-15T07:41:42.204Z,8.05
2023-04-15T07:44:28.078Z,8.55
2023-04-15T07:47:13.916Z,8.31
2023-04-15T07:49:59.696Z,8.56
2023-04-15T07:52:45.519Z,8.11
2023-04-15T07:55:31.353Z,8.18
2023-04-15T07:58:17.137Z,8.08
2023-04-15T08:01:02.954Z,8.23
2023-04-15T08:03:48.900Z,8.51
2023-04-15T08:06:35.180Z,8.86
2023-04-15T08:09:23.228Z,8.41
2023-04-15T08:12:09.038Z,8.23
2023-04-15T08:14:55.010Z,8.19
2023-04-15T08:17:40.989Z,8.29
2023-04-15T08:20:26.927Z,8.11
2023-04-15T08:23:12.728Z,8.29
2023-04-15T08:25:58.425Z,7.53
2023-04-15T08:28:44.196Z,8.00
2023-04-15T08:31:30.266Z,8.63
2023-04-15T08:34:16.069Z,8.47
2023-04-15T08:37:01.876Z,8.36
2023-04-15T08:39:47.872Z,8.55
2023-04-15T08:42:33.620Z,8.85
2023-04-15T08:45:19.609Z,8.86
2023-04-15T08:48:05.477Z,9.05
2023-04-15T08:50:51.371Z,8.94
2023-04-15T08:53:37.197Z,8.57
2023-04-15T08:56:23.052Z,8.08
2023-04-15T08:59:08.797Z,8.32
2023-04-15T09:01:54.689Z,8.66
2023-04-15T09:04:40.529Z,8.82
2023-04-15T09:07:26.428Z,9.16
2023-04-15T09:10:12.107Z,8.93
2023-04-15T09:12:57.971Z,8.67
2023-04-15T09:15:43.856Z,8.69
2023-04-15T09:18:29.856Z,8.95
2023-04-15T09:21:15.914Z,8.86
2023-04-15T09:24:01.987Z,8.82
2023-04-15T09:26:48.123Z,9.05
2023-04-15T09:29:34.024Z,9.07
2023-04-15T09:32:19.812Z,8.85
2023-04-15T09:35:05.634Z,8.62
2023-04-15T09:37:51.461Z,8.92
2023-04-15T09:40:37.306Z,8.89
2023-04-15T09:43:23.133Z,8.81
2023-04-15T09:46:08.901Z,8.95
2023-04-15T09:48:54.865Z,9.01
2023-04-15T09:54:27.140Z,8.92
2023-04-15T09:57:13.012Z,9.15
2023-04-15T09:59:58.943Z,8.96
2023-04-15T10:02:44.795Z,9.27
2023-04-15T10:05:31.364Z,8.80
2023-04-15T10:08:17.445Z,8.84
2023-04-15T10:11:03.355Z,9.08
2023-04-15T10:13:49.389Z,8.96
2023-04-15T10:16:35.180Z,8.86
2023-04-15T10:19:20.999Z,8.42
2023-04-15T10:22:06.758Z,8.47
2023-04-15T10:24:52.653Z,8.78
2023-04-15T10:27:38.554Z,9.10
2023-04-15T10:30:24.352Z,8.72
2023-04-15T10:33:10.248Z,8.65
2023-04-15T10:35:56.205Z,8.77
2023-04-15T10:38:41.973Z,8.67
2023-04-15T10:41:27.990Z,8.73
2023-04-15T10:44:13.758Z,8.61
2023-04-15T10:46:59.782Z,8.58
2023-04-15T10:49:45.753Z,8.85
2023-04-15T10:52:33.608Z,9.04
2023-04-15T10:55:19.620Z,8.63
2023-04-15T10:58:05.646Z,8.39
2023-04-15T11:00:51.468Z,8.59
2023-04-15T11:03:37.519Z,8.92
2023-04-15T11:06:23.691Z,8.78
2023-04-15T11:09:09.466Z,8.56
2023-04-15T11:11:55.353Z,8.66
2023-04-15T11:14:41.112Z,8.62
2023-04-15T11:17:26.937Z,8.60
2023-04-15T11:20:12.949Z,8.60
2023-04-15T11:23:10.836Z,8.61
2023-04-15T11:26:01.610Z,9.10
2023-04-15T11:28:47.592Z,8.84
2023-04-15T11:31:33.365Z,8.62
2023-04-15T11:34:19.408Z,8.67
2023-04-15T11:37:05.237Z,8.76
2023-04-15T11:39:51.152Z,8.95
2023-04-15T11:42:46.737Z,9.02
2023-04-15T11:45:35.642Z,9.31
2023-04-15T11:48:21.599Z,9.50
2023-04-15T11:51:07.451Z,9.43
2023-04-15T11:53:53.531Z,9.52
2023-04-15T11:56:39.459Z,9.39
2023-04-15T11:59:28.186Z,9.26
2023-04-15T12:02:18.837Z,9.31
2023-04-15T12:05:05.114Z,9.24
2023-04-15T12:07:51.166Z,9.64
2023-04-15T12:10:37.011Z,9.62
2023-04-15T12:13:22.890Z,9.61
2023-04-15T12:16:08.788Z,9.53
2023-04-15T12:18:54.649Z,9.56
2023-04-15T12:21:40.541Z,9.89
2023-04-15T12:24:26.251Z,9.96
2023-04-15T12:27:12.140Z,9.87
2023-04-15T12:29:58.031Z,9.67
2023-04-15T12:32:43.908Z,9.77
2023-04-15T12:35:29.981Z,9.54
2023-04-15T12:38:15.804Z,9.78
2023-04-15T12:41:01.861Z,9.54
2023-04-15T12:43:47.835Z,9.57
2023-04-15T12:46:33.636Z,9.74
2023-04-15T12:49:19.532Z,10.28
2023-04-15T12:52:05.431Z,10.25
2023-04-15T12:54:51.384Z,9.91
2023-04-15T12:57:37.434Z,10.02
2023-04-15T13:00:23.301Z,10.23
2023-04-15T13:03:09.201Z,10.21
2023-04-15T13:05:55.561Z,9.85
2023-04-15T13:08:47.947Z,9.72
2023-04-15T13:11:41.152Z,9.89
2023-04-15T13:14:26.957Z,9.68
2023-04-15T13:17:12.825Z,9.71
2023-04-15T13:19:58.730Z,9.92
2023-04-15T13:22:44.557Z,9.87
2023-04-15T13:25:30.523Z,9.86
2023-04-15T13:28:18.354Z,9.69
2023-04-15T13:31:04.234Z,9.91
2023-04-15T13:33:50.169Z,9.67
2023-04-15T13:36:35.990Z,9.57
2023-04-15T13:39:21.865Z,9.72
2023-04-15T13:42:07.735Z,9.83
2023-04-15T13:44:53.652Z,9.88
2023-04-15T13:47:39.594Z,9.94
2023-04-15T13:50:25.415Z,10.08
2023-04-15T13:53:11.391Z,10.02
2023-04-15T13:55:57.293Z,9.77
2023-04-15T13:58:43.185Z,9.53
2023-04-15T14:01:29.273Z,9.52
2023-04-15T14:04:15.205Z,9.95
2023-04-15T14:07:03.365Z,9.83
2023-04-15T14:09:50.567Z,9.93
2023-04-15T14:12:36.512Z,9.53
2023-04-15T14:15:22.432Z,9.50
2023-04-15T14:18:08.388Z,9.96
2023-04-15T14:20:54.222Z,9.85
2023-04-15T14:23:40.083Z,10.23
2023-04-15T14:26:26.024Z,9.87
2023-04-15T14:29:11.839Z,10.15
2023-04-15T14:32:11.039Z,10.27
2023-04-15T14:34:58.391Z,10.36
2023-04-15T14:37:44.403Z,10.52
2023-04-15T14:40:30.350Z,10.58
2023-04-15T14:43:16.147Z,10.72
2023-04-15T14:46:02.044Z,10.77
2023-04-15T14:48:48.316Z,10.91
2023-04-15T14:51:34.178Z,11.10
2023-04-15T14:54:21.915Z,11.18
2023-04-15T14:57:08.520Z,11.22
2023-04-15T14:59:54.416Z,11.39
2023-04-15T15:02:40.749Z,11.31
2023-04-15T15:05:26.822Z,11.17
2023-04-15T15:08:13.059Z,11.33
2023-04-15T15:10:59.009Z,11.22
2023-04-15T15:13:44.851Z,11.40
2023-04-15T15:16:30.841Z,11.61
2023-04-15T15:19:17.009Z,11.43
2023-04-15T15:22:02.869Z,11.65
2023-04-15T15:24:48.839Z,11.89
2023-04-15T15:27:37.089Z,11.96
2023-04-15T15:30:24.053Z,12.15
2023-04-15T15:33:09.994Z,12.21
2023-04-15T15:35:56.004Z,12.30
2023-04-15T15:38:41.914Z,12.41
2023-04-15T15:41:29.934Z,12.48
2023-04-15T15:44:15.897Z,12.45
2023-04-15T15:47:01.728Z,12.58
2023-04-15T15:49:48.085Z,12.71
2023-04-15T15:52:34.038Z,12.75
2023-04-15T15:55:19.873Z,12.84
2023-04-15T15:58:05.797Z,12.75
2023-04-15T16:00:51.696Z,12.80
2023-04-15T16:03:37.847Z,12.90
2023-04-15T16:06:24.368Z,12.78
2023-04-15T16:09:10.120Z,12.67
2023-04-15T16:11:56.061Z,12.60
2023-04-15T16:14:42.012Z,12.75
2023-04-15T16:17:27.854Z,12.79
2023-04-15T16:20:13.770Z,12.61
2023-04-15T16:22:59.732Z,12.58
2023-04-15T16:25:45.722Z,12.70
2023-04-15T16:28:31.718Z,12.78
2023-04-15T16:31:17.521Z,12.93
2023-04-15T16:34:03.529Z,12.83
2023-04-15T16:36:49.407Z,12.93
2023-04-15T16:39:35.302Z,12.70
2023-04-15T16:42:21.340Z,12.81
2023-04-15T16:45:07.252Z,12.91
2023-04-15T16:47:53.164Z,12.93
2023-04-15T16:50:39.186Z,13.00
2023-04-15T16:53:25.044Z,12.87
2023-04-15T16:56:10.922Z,12.86
2023-04-15T16:58:56.748Z,12.89
2023-04-15T17:01:42.807Z,12.89
2023-04-15T17:04:28.889Z,12.87
2023-04-15T17:07:15.141Z,12.89
2023-04-15T17:10:01.009Z,12.93
2023-04-15T17:12:46.933Z,12.98
2023-04-15T17:15:32.725Z,12.77
2023-04-15T17:18:20.666Z,12.75
2023-04-15T17:21:06.785Z,12.78
2023-04-15T17:23:52.828Z,12.74
2023-04-15T17:26:38.786Z,12.81
2023-04-15T17:29:24.744Z,12.90
2023-04-15T17:32:10.528Z,13.00
2023-04-15T17:34:56.329Z,12.99
2023-04-15T17:37:42.252Z,13.04
2023-04-15T17:40:28.194Z,12.95
2023-04-15T17:43:14.167Z,12.98
2023-04-15T17:46:00.174Z,13.02
2023-04-15T17:48:46.112Z,13.05
2023-04-15T17:51:31.904Z,13.12
2023-04-15T17:54:18.009Z,13.10
2023-04-15T17:57:03.833Z,13.06
2023-04-15T17:59:49.599Z,13.10
2023-04-15T18:02:37.247Z,13.01
2023-04-15T18:05:23.556Z,13.01
2023-04-15T18:08:09.338Z,13.18
2023-04-15T18:10:55.233Z,13.08
2023-04-15T18:13:43.190Z,13.07
2023-04-15T18:16:29.734Z,12.97
2023-04-15T18:19:15.617Z,12.95
2023-04-15T18:22:01.463Z,12.81
2023-04-15T18:24:47.413Z,12.61
2023-04-15T18:27:33.358Z,12.62
2023-04-15T18:30:19.115Z,12.00
2023-04-15T18:33:05.133Z,12.24
2023-04-15T18:35:51.263Z,11.84
2023-04-15T18:38:37.178Z,12.10
2023-04-15T18:41:23.129Z,12.03
2023-04-15T18:44:09.013Z,12.05
2023-04-15T18:46:54.995Z,11.87
2023-04-15T18:49:40.766Z,11.34
2023-04-15T18:52:26.745Z,10.65
2023-04-15T18:55:12.609Z,10.29
2023-04-15T18:58:06.567Z,10.03
2023-04-15T19:00:55.237Z,10.41
2023-04-15T19:03:41.096Z,10.74
2023-04-15T19:06:27.197Z,10.93
2023-04-15T19:09:13.380Z,11.08
2023-04-15T19:11:59.290Z,11.16
2023-04-15T19:14:47.081Z,10.62
2023-04-15T19:17:33.215Z,10.32
2023-04-15T19:20:19.277Z,9.47
2023-04-15T19:23:05.160Z,9.20
2023-04-15T19:25:51.120Z,8.87
2023-04-15T19:28:36.958Z,9.02
2023-04-15T19:31:23.106Z,9.26
2023-04-15T19:34:09.285Z,9.47
2023-04-15T19:36:55.152Z,9.36
2023-04-15T19:39:41.097Z,9.23
2023-04-15T19:42:26.882Z,9.17
2023-04-15T19:45:12.629Z,9.06
2023-04-15T19:47:58.563Z,9.01
2023-04-15T19:50:44.587Z,9.52
2023-04-15T19:53:30.485Z,9.95
2023-04-15T19:56:16.215Z,10.22
2023-04-15T19:59:02.293Z,10.46
2023-04-15T20:01:48.736Z,10.54
2023-04-15T20:04:35.022Z,10.64
2023-04-15T20:07:20.979Z,10.24
2023-04-15T20:10:12.145Z,9.90
2023-04-15T20:12:59.087Z,9.74
2023-04-15T20:15:45.089Z,10.08
2023-04-15T20:18:30.898Z,9.62
2023-04-15T20:21:16.817Z,8.95
2023-04-15T20:24:02.905Z,8.36
2023-04-15T20:26:49.258Z,7.95
2023-04-15T20:29:34.949Z,7.64
2023-04-15T20:32:20.850Z,7.54
2023-04-15T20:35:06.874Z,7.74
2023-04-15T20:37:52.845Z,7.96
2023-04-15T20:43:24.663Z,8.78
2023-04-15T20:46:20.463Z,9.00
2023-04-15T20:49:07.621Z,9.37
2023-04-15T20:51:53.944Z,8.99
2023-04-15T20:54:39.720Z,9.12
2023-04-15T20:57:25.532Z,9.32
2023-04-15T21:00:11.498Z,9.45
2023-04-15T21:02:57.461Z,9.46
2023-04-15T21:05:43.802Z,9.41
2023-04-15T21:08:29.784Z,9.66
2023-04-15T21:11:28.319Z,9.66
2023-04-15T21:14:21.516Z,9.81
2023-04-15T21:17:10.197Z,9.71
2023-04-15T21:19:57.075Z,9.86
2023-04-15T21:22:42.959Z,9.77
2023-04-15T21:25:28.771Z,9.81
2023-04-15T21:28:14.691Z,10.16
2023-04-15T21:31:00.471Z,10.55
2023-04-15T21:33:48.594Z,10.72
2023-04-15T21:36:34.561Z,10.82
2023-04-15T21:39:20.463Z,10.92
2023-04-15T21:42:06.483Z,11.05
2023-04-15T21:44:52.329Z,10.55
2023-04-15T21:47:59.692Z,10.84
2023-04-15T21:50:44.499Z,11.01
2023-04-15T21:53:30.348Z,10.78
2023-04-15T21:56:16.339Z,10.90
2023-04-15T21:59:04.328Z,11.04
2023-04-15T22:01:50.595Z,11.10
2023-04-15T22:04:36.830Z,11.31
2023-04-15T22:07:22.674Z,11.32
2023-04-15T22:10:08.605Z,11.41
2023-04-15T22:12:54.579Z,11.41
2023-04-15T22:15:40.573Z,11.58
2023-04-15T22:18:26.329Z,11.51
2023-04-15T22:21:12.292Z,11.67
2023-04-15T22:24:32.533Z,11.68
2023-04-15T22:27:04.629Z,11.74
2023-04-15T22:29:50.489Z,11.69
2023-04-15T22:32:36.557Z,11.80
2023-04-15T22:35:22.635Z,11.81
2023-04-15T22:38:08.532Z,11.37
2023-04-15T22:40:54.408Z,11.20
2023-04-15T22:43:40.098Z,10.82
2023-04-15T22:46:26.170Z,11.07
2023-04-15T22:49:12.125Z,9.78
2023-04-15T22:51:57.954Z,9.50
2023-04-15T22:54:43.774Z,8.30
2023-04-15T22:57:29.720Z,8.21
2023-04-15T23:03:57.024Z,6.75
2023-04-15T23:06:51.629Z,7.29
2023-04-15T23:09:37.640Z,7.50
2023-04-15T23:12:23.440Z,8.11
2023-04-15T23:15:09.258Z,7.70
2023-04-15T23:17:55.283Z,8.28
2023-04-15T23:20:41.143Z,7.94
2023-04-15T23:23:27.061Z,7.74
2023-04-15T23:26:12.989Z,7.69
2023-04-15T23:28:58.704Z,6.97
2023-04-15T23:31:44.753Z,6.70
2023-04-15T23:34:32.588Z,5.93
2023-04-15T23:37:18.476Z,5.99
2023-04-15T23:40:04.310Z,5.21
2023-04-15T23:42:50.293Z,5.25
2023-04-15T23:45:36.204Z,4.88
2023-04-15T23:48:22.128Z,4.92
2023-04-15T23:51:07.955Z,4.97
2023-04-15T23:53:53.987Z,5.05
2023-04-15T23:56:39.950Z,4.87
2023-04-15T23:59:25.701Z,4.99
